Flight Track Log - Related Links

Times and Time Zones

All times are in EDT time to prevent confusion due to time zone crossing. See the SKW5517 flight status page for this flight to view local times or setup timezone preferences in your user account.

Time Position Orientation Groundspeed Altitude Reporting Facility
EDT Latitude Longitude Course Direction KTS MPH feet Rate Location/Type
Fri 10:02:00 PM 39.7211 -105.0869 247° West  Level FlightAware
Fri 10:03:00 PM 39.6768 -105.2260 252° West  Level FlightAware
Fri 10:04:00 PM 39.6337 -105.3657 247° West  Level FlightAware
Fri 10:05:00 PM 39.5876 -105.5038 247° West  Level FlightAware
Fri 10:06:00 PM 39.5463 -105.6277 247° West  Level FlightAware
Fri 10:07:00 PM 39.5003 -105.7657 247° West  Level FlightAware
Fri 10:08:00 PM 39.4660 -105.9083 251° West  Level FlightAware
Fri 10:09:00 PM 39.4246 -106.0469 243° Southwest  Level FlightAware
Fri 10:10:00 PM 39.3824 -106.1865 249° West  Level FlightAware
Fri 10:11:00 PM 39.3405 -106.3263 249° West  Level FlightAware
Fri 10:12:00 PM 39.3005 -106.4656 237° Southwest  Level FlightAware
Fri 10:13:00 PM 39.2626 -106.6072 251° West  Level FlightAware
Fri 10:14:00 PM 39.2191 -106.7451 237° Southwest  Level FlightAware
Fri 10:15:00 PM 39.1433 -106.8575 231° Southwest  Level FlightAware
Fri 10:16:00 PM 39.0717 -106.9750 232° Southwest  Level FlightAware
Fri 10:17:00 PM 38.9994 -107.0916 228° Southwest  Level FlightAware
Fri 10:18:00 PM 38.9224 -107.2031 228° Southwest  Level FlightAware
Fri 10:19:00 PM 38.8493 -107.3182 237° Southwest  Level FlightAware
Fri 10:20:00 PM 38.7795 -107.4365 228° Southwest  Level FlightAware
Fri 10:21:00 PM 38.7020 -107.5471 228° Southwest  Level FlightAware
Fri 10:22:00 PM 38.6294 -107.6629 231° Southwest  Level FlightAware
Fri 10:23:00 PM 38.5570 -107.7788 231° Southwest  Level FlightAware
Fri 10:24:00 PM 38.4828 -107.8926 230° Southwest  Level FlightAware
Fri 10:25:00 PM 38.4076 -108.0054 230° Southwest  Level FlightAware
Fri 10:26:00 PM 38.3327 -108.1182 230° Southwest  Level FlightAware
Fri 10:27:00 PM 38.2581 -108.2313 230° Southwest  Level FlightAware
Fri 10:28:00 PM 38.1833 -108.3442 230° Southwest  Level FlightAware
Fri 10:29:00 PM 38.1085 -108.4568 230° Southwest  Level FlightAware
Fri 10:30:00 PM 38.0335 -108.5691 230° Southwest  Level FlightAware
Fri 10:31:00 PM 37.9584 -108.6813 230° Southwest  Level FlightAware
Fri 10:32:00 PM 37.8832 -108.7932 230° Southwest  Level FlightAware
Fri 10:33:00 PM 37.8080 -108.9049 230° Southwest  Level FlightAware
Fri 10:34:00 PM 37.7446 -109.0276 238° Southwest  Level FlightAware
Fri 10:35:00 PM 37.6823 -109.1512 237° Southwest  Level FlightAware
Fri 10:36:00 PM 37.6198 -109.2746 237° Southwest  Level FlightAware
Fri 10:37:00 PM 37.5571 -109.3977 237° Southwest  Level FlightAware
Fri 10:38:00 PM 37.4943 -109.5206 237° Southwest  Level FlightAware
Fri 10:39:00 PM 37.4314 -109.6433 237° Southwest  Level FlightAware
Fri 10:40:00 PM 37.3683 -109.7658 237° Southwest  Level FlightAware
Fri 10:41:00 PM 37.3051 -109.8881 237° Southwest  Level FlightAware
Fri 10:42:00 PM 37.2418 -110.0101 237° Southwest  Level FlightAware
Fri 10:43:00 PM 37.1784 -110.1320 237° Southwest  Level FlightAware
Fri 10:44:00 PM 37.1148 -110.2537 237° Southwest  Level FlightAware
Fri 10:45:00 PM 37.0512 -110.3752 237° Southwest  Level FlightAware
Fri 10:46:00 PM 36.9874 -110.4964 237° Southwest  Level FlightAware
Fri 10:47:00 PM 36.9234 -110.6175 237° Southwest  Level FlightAware
Fri 10:48:00 PM 36.8594 -110.7384 237° Southwest  Level FlightAware
Fri 10:49:00 PM 36.7952 -110.8590 236° Southwest  Level FlightAware
Fri 10:50:00 PM 36.7305 -110.9792 236° Southwest  Level FlightAware
Fri 10:51:00 PM 36.6659 -111.0992 236° Southwest  Level FlightAware
Fri 10:52:00 PM 36.6015 -111.2194 236° Southwest  Level FlightAware
Fri 10:53:00 PM 36.5369 -111.3393 236° Southwest  Level FlightAware
Fri 10:54:00 PM 36.4722 -111.4590 236° Southwest  Level FlightAware
Fri 10:55:00 PM 36.4059 -111.5773 235° Southwest  Level FlightAware
Fri 10:56:00 PM 36.3388 -111.6947 235° Southwest  Level FlightAware
Fri 10:57:00 PM 36.2729 -111.8131 236° Southwest  Level FlightAware
Fri 10:58:00 PM 36.2076 -111.9319 236° Southwest  Level FlightAware
Fri 10:59:00 PM 36.1422 -112.0505 236° Southwest  Level FlightAware
Fri 11:00:00 PM 36.0766 -112.1689 236° Southwest  Level FlightAware
Fri 11:01:00 PM 36.0109 -112.2870 236° Southwest  Level FlightAware
Fri 11:02:00 PM 35.9451 -112.4050 235° Southwest  Level FlightAware
Fri 11:03:00 PM 35.8792 -112.5228 235° Southwest  Level FlightAware
Fri 11:04:00 PM 35.8132 -112.6404 235° Southwest  Level FlightAware
Fri 11:05:00 PM 35.7471 -112.7578 235° Southwest  Level FlightAware
Fri 11:06:00 PM 35.6808 -112.8751 235° Southwest  Level FlightAware
Fri 11:07:00 PM 35.6131 -112.9909 234° Southwest  Level FlightAware
Fri 11:08:00 PM 35.5449 -113.1062 234° Southwest  Level FlightAware
Fri 11:09:00 PM 35.4766 -113.2213 234° Southwest  Level FlightAware
Fri 11:10:00 PM 35.4082 -113.3363 234° Southwest  Level FlightAware
Fri 11:11:00 PM 35.3424 -113.4534 236° Southwest  Level FlightAware
Fri 11:12:00 PM 35.2769 -113.5706 236° Southwest  Level FlightAware
Fri 11:13:00 PM 35.2113 -113.6877 236° Southwest  Level FlightAware
Fri 11:14:00 PM 35.1456 -113.8046 236° Southwest  Level FlightAware
Fri 11:15:00 PM 35.0797 -113.9212 235° Southwest  Level FlightAware
Fri 11:16:00 PM 35.0138 -114.0377 235° Southwest  Level FlightAware
Fri 11:17:00 PM 34.9476 -114.1539 233° Southwest  Level FlightAware
Fri 11:18:00 PM 34.8773 -114.2664 233° Southwest  Level FlightAware
Fri 11:19:00 PM 34.8064 -114.3782 234° Southwest  Level FlightAware
Fri 11:20:00 PM 34.7378 -114.4859 232° Southwest  Level FlightAware
Fri 11:21:00 PM 34.6668 -114.5975 232° Southwest  Level FlightAware
Fri 11:22:00 PM 34.5932 -114.7063 229° Southwest  Level FlightAware
Fri 11:23:00 PM 34.5240 -114.8186 239° Southwest  Level FlightAware
Fri 11:24:00 PM 34.4508 -114.9275 230° Southwest  Level FlightAware
Fri 11:25:00 PM 34.3755 -115.0344 229° Southwest  Level FlightAware
Fri 11:26:00 PM 34.3032 -115.1437 239° Southwest  Level FlightAware
Fri 11:27:00 PM 34.2370 -115.2583 229° Southwest  Level FlightAware
Fri 11:28:00 PM 34.1612 -115.3645 229° Southwest  Level FlightAware
Fri 11:29:00 PM 34.0860 -115.4710 231° Southwest  Level FlightAware
Fri 11:30:00 PM 34.0133 -115.5801 231° Southwest  Level FlightAware
Fri 11:31:00 PM 33.9365 -115.6848 228° Southwest  Level FlightAware
Fri 11:32:00 PM 33.9000 -115.8075 270° West  Level FlightAware
Fri 11:33:00 PM 33.9000 -115.9473 270° West  Level FlightAware
Fri 11:34:00 PM 33.8814 -116.0838 262° West  Level FlightAware
Fri 11:35:00 PM 33.8653 -116.2221 253° West  Level FlightAware
Fri 11:36:00 PM 33.8431 -116.3581 259° West  Level FlightAware
Fri 11:37:00 PM 33.8178 -116.4944 256° West  Level FlightAware
Fri 11:38:00 PM 33.8167 -116.5000 256° West  Level FlightAware
Fri 11:39:00 PM 33.8297 -116.5067 256° West  Level Estimated
Fri 11:40:00 PM 33.8297 -116.5067 256° West  Level Estimated
Fri 11:41:00 PM 33.8297 -116.5067 256° West  Level Estimated
Fri 11:42:00 PM 33.8297 -116.5067 256° West  Level Estimated

Login

Don't have an account? Register now (free) for customized features, flight alerts, and more!